Time;durP1;ratioP1;P1;durP2;ratioP2;P2;SDS_P1;SDS_P2;PMS_P1;PMS_P2;Temp;Humidity;BMP_temperature;BMP_pressure;BME280_temperature;BME280_humidity;BME280_pressure;Samples;Min_cycle;Max_cycle;Signal;HPM_P1;HPM_P2
2022/12/13 00:01:23;;;;;;;2.72;1.45;;;;;;;-5.20;100.00;99750.25;6096791;23;20085;-88
2022/12/13 00:03:48;;;;;;;0.22;0.22;;;;;;;-5.23;100.00;99744.72;6097747;23;20473;-89
2022/12/13 00:06:14;;;;;;;1.75;1.65;;;;;;;-5.30;100.00;99744.50;6096568;23;20006;-88
2022/12/13 00:08:40;;;;;;;0.10;0.10;;;;;;;-5.50;100.00;99729.19;6121487;23;20470;-88
2022/12/13 00:11:09;;;;;;;3.53;2.42;;;;;;;-5.39;100.00;99735.72;6101822;23;20343;-89
2022/12/13 00:13:34;;;;;;;0.10;0.10;;;;;;;-5.53;100.00;99703.63;6127350;23;20081;-88
2022/12/13 00:16:06;;;;;;;0.82;0.82;;;;;;;-5.55;100.00;99719.41;6126743;23;20093;-88
2022/12/13 00:18:32;;;;;;;0.00;0.00;;;;;;;-5.34;100.00;99743.63;6127869;23;20080;-88
2022/12/13 00:20:58;;;;;;;0.10;0.10;;;;;;;-5.40;100.00;99723.31;6102400;23;20013;-89
2022/12/13 00:23:24;;;;;;;0.38;0.38;;;;;;;-5.40;100.00;99739.53;6075172;23;20465;-90
2022/12/13 00:25:49;;;;;;;0.40;0.40;;;;;;;-5.49;100.00;99736.16;6122946;23;20005;-89
2022/12/13 00:28:15;;;;;;;4.22;2.35;;;;;;;-5.43;100.00;99749.13;6123711;23;20010;-90
2022/12/13 00:30:41;;;;;;;0.85;0.85;;;;;;;-5.45;100.00;99753.28;6099398;23;20005;-90
2022/12/13 00:33:07;;;;;;;2.90;2.70;;;;;;;-5.54;100.00;99739.09;6098624;23;20427;-91
2022/12/13 00:35:33;;;;;;;0.68;0.68;;;;;;;-5.60;100.00;99751.25;6123938;23;20076;-90
2022/12/13 00:37:58;;;;;;;1.77;1.55;;;;;;;-5.92;100.00;99712.41;6125790;23;20100;-90
2022/12/13 00:40:24;;;;;;;0.38;0.38;;;;;;;-5.87;100.00;99714.91;6149822;23;20077;-89
2022/12/13 00:42:50;;;;;;;1.83;1.73;;;;;;;-5.91;100.00;99714.00;6127786;23;20022;-89
2022/12/13 00:45:15;;;;;;;0.98;0.98;;;;;;;-5.98;100.00;99705.66;6077877;23;20014;-91
2022/12/13 00:47:41;;;;;;;0.73;0.73;;;;;;;-5.65;100.00;99766.56;6123914;23;20018;-89
2022/12/13 00:50:07;;;;;;;4.13;0.88;;;;;;;-5.79;100.00;99741.78;6137071;23;20020;-90
2022/12/13 00:52:33;;;;;;;0.43;0.43;;;;;;;-5.75;100.00;99756.19;6153483;23;20020;-91
2022/12/13 00:54:59;;;;;;;0.65;0.55;;;;;;;-5.85;100.00;99745.00;6102823;23;20362;-89
2022/12/13 00:57:25;;;;;;;2.08;1.98;;;;;;;-5.73;100.00;99763.94;6128228;23;20013;-89
2022/12/13 00:59:51;;;;;;;0.73;0.73;;;;;;;-5.67;100.00;99755.31;6127930;23;20009;-89
2022/12/13 01:02:16;;;;;;;1.00;1.00;;;;;;;-5.96;100.00;99725.00;6156824;23;20528;-90
2022/12/13 01:04:42;;;;;;;0.20;0.20;;;;;;;-5.73;100.00;99766.66;6130212;23;20016;-89
2022/12/13 01:07:08;;;;;;;7.97;1.20;;;;;;;-5.90;100.00;99751.44;6105719;23;20088;-89
2022/12/13 01:09:33;;;;;;;0.28;0.28;;;;;;;-5.91;100.00;99752.59;6105005;23;20059;-89
2022/12/13 01:12:01;;;;;;;0.88;0.82;;;;;;;-5.95;100.00;99757.09;6129409;23;20413;-89
2022/12/13 01:14:27;;;;;;;3.92;2.95;;;;;;;-5.98;100.00;99757.72;6100751;23;20088;-90
2022/12/13 01:16:55;;;;;;;0.57;0.57;;;;;;;-5.92;100.00;99761.00;6101787;23;20013;-90
2022/12/13 01:19:22;;;;;;;1.48;1.42;;;;;;;-6.07;100.00;99751.66;6100438;23;20581;-89
2022/12/13 01:21:48;;;;;;;1.70;1.17;;;;;;;-6.04;100.00;99766.38;6123121;23;20013;-91
2022/12/13 01:24:14;;;;;;;0.88;0.88;;;;;;;-6.04;100.00;99775.28;6101100;23;20029;-90
2022/12/13 01:26:40;;;;;;;1.23;1.17;;;;;;;-6.10;100.00;99757.69;6126302;23;20048;-90
2022/12/13 01:29:06;;;;;;;2.22;2.13;;;;;;;-6.38;100.00;99727.00;6100291;23;20068;-90
2022/12/13 01:31:32;;;;;;;9.40;6.75;;;;;;;-6.10;100.00;99767.72;6126348;23;20013;-89
2022/12/13 01:33:57;;;;;;;0.47;0.47;;;;;;;-6.05;100.00;99778.31;6125889;23;20045;-90
2022/12/13 01:36:23;;;;;;;1.70;1.60;;;;;;;-6.12;100.00;99768.06;6098548;23;20029;-90
2022/12/13 01:38:49;;;;;;;2.85;2.10;;;;;;;-6.19;100.00;99762.41;6126475;23;20064;-89
2022/12/13 01:41:17;;;;;;;2.38;2.17;;;;;;;-6.18;100.00;99766.66;6101112;23;20358;-89
2022/12/13 01:43:43;;;;;;;1.23;0.82;;;;;;;-6.24;100.00;99766.09;6100465;23;20097;-90
2022/12/13 01:46:13;;;;;;;2.03;1.85;;;;;;;-6.28;100.00;99764.41;6098892;23;20045;-89
2022/12/13 01:48:46;;;;;;;0.55;0.55;;;;;;;-6.33;100.00;99776.19;6098956;23;20446;-91
2022/12/13 01:51:14;;;;;;;1.00;1.00;;;;;;;-6.43;100.00;99751.53;6126228;23;20014;-89
2022/12/13 01:53:42;;;;;;;0.45;0.45;;;;;;;-6.39;100.00;99757.84;6125060;23;20108;-90
2022/12/13 01:56:12;;;;;;;3.03;1.38;;;;;;;-6.31;100.00;99751.56;6101542;23;20108;-90
2022/12/13 01:58:39;;;;;;;0.35;0.35;;;;;;;-6.29;100.00;99760.91;6101022;23;20029;-89
2022/12/13 02:03:46;;;;;;;1.67;1.27;;;;;;;-6.40;100.00;99773.25;6170800;23;20032;-88
2022/12/13 02:06:16;;;;;;;1.75;1.65;;;;;;;-6.38;100.00;99776.38;6104210;23;20316;-87
2022/12/13 02:08:43;;;;;;;2.35;1.90;;;;;;;-6.42;100.00;99770.06;6105493;23;20084;-87
2022/12/13 02:11:09;;;;;;;0.95;0.95;;;;;;;-6.40;100.00;99767.03;6133548;23;20082;-86
2022/12/13 02:13:35;;;;;;;3.97;3.00;;;;;;;-6.40;100.00;99769.75;6107617;23;20021;-87
2022/12/13 02:16:03;;;;;;;0.82;0.80;;;;;;;-6.38;100.00;99770.19;6105683;23;20051;-88
2022/12/13 02:18:47;;;;;;;0.43;0.43;;;;;;;-6.51;100.00;99760.47;6129791;23;20024;-87
2022/12/13 02:21:36;;;;;;;0.65;0.63;;;;;;;-6.48;100.00;99760.59;6133505;23;20024;-87
2022/12/13 02:24:05;;;;;;;0.40;0.40;;;;;;;-6.42;100.00;99769.28;6083442;23;20021;-88
2022/12/13 02:26:54;;;;;;;0.00;0.00;;;;;;;-6.37;100.00;99760.97;6129974;23;20025;-88
2022/12/13 02:29:26;;;;;;;0.55;0.55;;;;;;;-6.40;100.00;99765.13;6105753;23;20021;-87
2022/12/13 02:32:02;;;;;;;0.28;0.28;;;;;;;-6.35;100.00;99762.25;6129513;23;20091;-91
2022/12/13 02:34:44;;;;;;;0.57;0.57;;;;;;;-6.45;100.00;99737.56;6106387;23;20076;-89
2022/12/13 02:37:25;;;;;;;0.65;0.65;;;;;;;-6.64;100.00;99714.56;6104788;23;20115;-89
2022/12/13 02:39:56;;;;;;;0.45;0.45;;;;;;;-6.38;100.00;99765.59;6131157;23;20045;-87
2022/12/13 02:42:30;;;;;;;0.70;0.70;;;;;;;-6.53;100.00;99754.59;6153690;23;20009;-86
2022/12/13 02:45:03;;;;;;;1.42;1.20;;;;;;;-6.53;100.00;99763.50;6129420;23;20016;-86
2022/12/13 02:47:30;;;;;;;2.20;2.05;;;;;;;-6.42;100.00;99766.56;6153511;23;20095;-87
2022/12/13 02:49:59;;;;;;;0.85;0.60;;;;;;;-6.46;100.00;99768.34;6128167;23;20052;-88
2022/12/13 02:52:27;;;;;;;1.10;1.10;;;;;;;-6.64;100.00;99736.13;6106440;23;20009;-88
2022/12/13 02:54:54;;;;;;;0.28;0.28;;;;;;;-6.57;100.00;99759.09;6129526;23;20037;-87
2022/12/13 02:57:32;;;;;;;3.10;1.80;;;;;;;-6.56;100.00;99763.38;6128933;23;20346;-89
2022/12/13 03:00:04;;;;;;;0.55;0.55;;;;;;;-6.50;100.00;99773.63;6104900;23;20020;-89
2022/12/13 03:02:37;;;;;;;1.85;1.63;;;;;;;-6.52;100.00;99769.69;6124365;23;20114;-90
2022/12/13 03:08:17;;;;;;;0.30;0.30;;;;;;;-6.51;100.00;99774.75;6147407;23;20673;-90
2022/12/13 03:10:45;;;;;;;;;;;;;;;-6.50;100.00;99775.53;6126463;23;20055;-90
2022/12/13 03:16:02;;;;;;;0.10;0.10;;;;;;;-6.66;100.00;99781.53;6130087;23;20053;-87
2022/12/13 03:18:28;;;;;;;0.88;0.85;;;;;;;-6.76;100.00;99776.53;6125205;23;20462;-92
2022/12/13 03:21:00;;;;;;;0.13;0.13;;;;;;;-6.77;100.00;99772.25;6150406;23;19998;-88
2022/12/13 03:23:26;;;;;;;0.50;0.50;;;;;;;-6.73;100.00;99781.25;6102100;23;20020;-90
2022/12/13 03:26:13;;;;;;;2.38;0.85;;;;;;;-6.78;100.00;99770.66;6101893;23;20336;-91
2022/12/13 03:28:39;;;;;;;1.73;1.63;;;;;;;-6.80;100.00;99775.63;6126472;23;20112;-92
2022/12/13 03:31:05;;;;;;;0.65;0.40;;;;;;;-6.88;100.00;99756.78;6101991;23;20336;-91
2022/12/13 03:33:31;;;;;;;1.10;1.10;;;;;;;-6.81;100.00;99768.63;6126432;23;20013;-91
2022/12/13 03:35:57;;;;;;;1.75;1.65;;;;;;;-6.89;100.00;99749.81;6101431;23;20010;-91
2022/12/13 03:38:23;;;;;;;2.20;2.10;;;;;;;-6.88;100.00;99762.97;6102198;23;20022;-92
2022/12/13 03:40:55;;;;;;;0.85;0.85;;;;;;;-6.87;100.00;99769.94;6126688;23;20164;-92
2022/12/13 03:43:21;;;;;;;0.20;0.20;;;;;;;-6.94;100.00;99761.56;6104493;23;20439;-91
2022/12/13 03:45:47;;;;;;;0.55;0.55;;;;;;;-6.91;100.00;99760.91;6103986;23;20005;-91
2022/12/13 03:48:12;;;;;;;0.65;0.65;;;;;;;-6.96;100.00;99755.72;6103568;23;20017;-89
2022/12/13 03:50:38;;;;;;;0.10;0.10;;;;;;;-6.80;100.00;99770.22;6126424;23;20329;-93
2022/12/13 03:53:10;;;;;;;0.38;0.38;;;;;;;-6.81;100.00;99773.22;6125960;23;20013;-91
2022/12/13 03:55:35;;;;;;;0.30;0.30;;;;;;;-6.91;100.00;99769.00;6105862;23;20017;-90
2022/12/13 03:58:01;;;;;;;0.73;0.73;;;;;;;-7.04;100.00;99743.09;6155714;23;20424;-89
2022/12/13 04:00:26;;;;;;;0.38;0.38;;;;;;;-6.85;100.00;99767.72;6127349;23;20018;-91
2022/12/13 04:02:52;;;;;;;0.20;0.20;;;;;;;-6.91;100.00;99779.78;6127528;23;20013;-91
2022/12/13 04:05:18;;;;;;;2.65;2.47;;;;;;;-6.96;100.00;99777.31;6130712;23;20439;-91
2022/12/13 04:07:43;;;;;;;7.97;4.75;;;;;;;-6.92;100.00;99780.13;6132816;23;20079;-90
2022/12/13 04:10:09;;;;;;;0.85;0.80;;;;;;;-6.99;100.00;99755.59;6156128;23;20366;-91
2022/12/13 04:15:19;;;;;;;0.68;0.68;;;;;;;-6.90;100.00;99764.41;6129956;23;20029;-89
2022/12/13 04:17:44;;;;;;;0.75;0.75;;;;;;;-7.17;100.00;99736.84;6102521;23;20707;-91
2022/12/13 04:20:10;;;;;;;0.15;0.15;;;;;;;-7.14;100.00;99756.94;6150827;23;20416;-91
2022/12/13 04:22:35;;;;;;;0.03;0.03;;;;;;;-7.34;100.00;99725.34;6126885;23;20013;-90
2022/12/13 04:25:01;;;;;;;0.65;0.65;;;;;;;-7.09;100.00;99759.47;6105009;23;20017;-89
2022/12/13 04:27:27;;;;;;;6.65;2.20;;;;;;;-7.10;100.00;99755.97;6106578;23;20005;-90
2022/12/13 04:29:53;;;;;;;0.73;0.73;;;;;;;-7.21;100.00;99727.03;6104609;23;20014;-89
2022/12/13 04:32:19;;;;;;;0.52;0.52;;;;;;;-7.10;100.00;99739.78;6130778;23;20435;-86
2022/12/13 04:34:44;;;;;;;2.05;1.92;;;;;;;-7.15;100.00;99723.81;6156469;23;20017;-90
2022/12/13 04:37:10;;;;;;;0.40;0.40;;;;;;;-6.99;100.00;99761.00;6150546;23;20393;-90
2022/12/13 04:39:36;;;;;;;0.60;0.60;;;;;;;-7.27;100.00;99728.31;6129931;23;20060;-90
2022/12/13 04:42:02;;;;;;;5.63;1.75;;;;;;;-7.13;100.00;99758.53;6155928;23;20010;-91
2022/12/13 04:44:29;;;;;;;3.05;1.38;;;;;;;-7.41;100.00;99717.78;6129481;23;20190;-91
2022/12/13 04:46:55;;;;;;;0.15;0.15;;;;;;;-7.27;100.00;99739.91;6126132;23;20081;-91
2022/12/13 04:49:21;;;;;;;0.60;0.60;;;;;;;-7.36;100.00;99733.78;6126416;23;20056;-91
2022/12/13 04:51:46;;;;;;;0.98;0.88;;;;;;;-7.33;100.00;99740.41;6150956;23;20059;-91
2022/12/13 04:54:12;;;;;;;0.80;0.80;;;;;;;-7.36;100.00;99731.09;6126201;23;20523;-91
2022/12/13 04:56:38;;;;;;;1.88;1.40;;;;;;;-7.37;100.00;99731.41;6126245;23;20380;-92
2022/12/13 04:59:04;;;;;;;1.08;1.08;;;;;;;-7.31;100.00;99738.19;6125651;23;20032;-89
2022/12/13 05:01:29;;;;;;;0.30;0.30;;;;;;;-7.23;100.00;99756.19;6150423;23;20068;-89
2022/12/13 05:03:55;;;;;;;2.95;2.03;;;;;;;-7.16;100.00;99756.50;6102292;23;20029;-90
2022/12/13 05:06:20;;;;;;;0.15;0.15;;;;;;;-7.20;100.00;99736.69;6126988;23;20033;-90
2022/12/13 05:08:46;;;;;;;4.30;1.85;;;;;;;-7.31;100.00;99732.78;6127418;23;20002;-89
2022/12/13 05:11:13;;;;;;;0.35;0.35;;;;;;;-7.33;100.00;99726.94;6128589;23;20017;-90
2022/12/13 05:13:39;;;;;;;9.07;3.85;;;;;;;-7.12;100.00;99762.81;6126443;23;20022;-91
2022/12/13 05:16:06;;;;;;;0.68;0.68;;;;;;;-7.18;100.00;99758.72;6107073;23;20081;-89
2022/12/13 05:18:32;;;;;;;0.20;0.20;;;;;;;-7.23;100.00;99764.28;6129321;23;20013;-94
2022/12/13 05:21:03;;;;;;;2.92;0.85;;;;;;;-7.28;100.00;99759.09;6152459;23;20009;-91
2022/12/13 05:23:28;;;;;;;0.25;0.25;;;;;;;-7.50;100.00;99737.81;6128910;23;20018;-92
2022/12/13 05:25:54;;;;;;;1.70;1.60;;;;;;;-7.72;100.00;99710.00;6150645;23;20006;-90
2022/12/13 05:28:24;;;;;;;0.22;0.22;;;;;;;-7.55;100.00;99730.69;6153250;23;20014;-88
2022/12/13 05:30:50;;;;;;;1.92;1.83;;;;;;;-7.55;100.00;99739.56;6152713;23;20056;-91
2022/12/13 05:33:15;;;;;;;3.63;2.97;;;;;;;-7.42;100.00;99745.06;6157535;23;20017;-90
2022/12/13 05:35:41;;;;;;;3.60;3.30;;;;;;;-7.60;100.00;99737.03;6127552;23;20009;-92
2022/12/13 05:38:06;;;;;;;1.80;1.70;;;;;;;-7.48;100.00;99757.13;6150777;23;20088;-90
2022/12/13 05:40:33;;;;;;;1.10;1.00;;;;;;;-7.55;100.00;99755.72;6154356;23;20037;-91
2022/12/13 05:42:58;;;;;;;1.50;1.40;;;;;;;-7.48;100.00;99760.63;6105095;23;20455;-88
2022/12/13 05:45:24;;;;;;;0.10;0.10;;;;;;;-7.52;100.00;99748.91;6125200;23;20109;-90
2022/12/13 05:47:50;;;;;;;2.70;2.42;;;;;;;-7.40;100.00;99761.69;6124736;23;20057;-90
2022/12/13 05:50:16;;;;;;;3.10;2.08;;;;;;;-7.48;100.00;99743.66;6155135;23;20065;-90
2022/12/13 05:52:44;;;;;;;2.05;1.95;;;;;;;-7.50;100.00;99735.09;6125807;23;20048;-91
2022/12/13 05:55:10;;;;;;;1.55;0.63;;;;;;;-7.38;100.00;99771.03;6123458;23;20077;-91
2022/12/13 05:57:35;;;;;;;0.77;0.77;;;;;;;-7.56;100.00;99754.13;6123132;23;20400;-92
2022/12/13 06:00:04;;;;;;;1.98;1.33;;;;;;;-7.57;100.00;99766.06;6132002;23;20017;-91
2022/12/13 06:02:42;;;;;;;0.30;0.30;;;;;;;-7.68;100.00;99772.88;6129574;23;20025;-90
2022/12/13 06:05:11;;;;;;;1.05;0.95;;;;;;;-7.71;100.00;99773.53;6150222;23;20423;-90
2022/12/13 06:07:37;;;;;;;1.00;0.95;;;;;;;-7.90;100.00;99745.41;6128096;23;20017;-86
2022/12/13 06:10:04;;;;;;;1.08;1.02;;;;;;;-7.77;100.00;99769.44;6127107;23;20021;-91
2022/12/13 06:12:29;;;;;;;0.30;0.30;;;;;;;-7.84;100.00;99768.38;6122751;23;20066;-90
2022/12/13 06:14:55;;;;;;;2.80;1.75;;;;;;;-7.77;100.00;99774.84;6149152;23;20141;-90
2022/12/13 06:17:23;;;;;;;1.10;1.02;;;;;;;-7.84;100.00;99779.91;6150933;23;20096;-91
2022/12/13 06:19:50;;;;;;;1.50;1.40;;;;;;;-8.13;100.00;99739.47;6124808;23;20017;-91
2022/12/13 06:22:15;;;;;;;0.90;0.90;;;;;;;-8.08;100.00;99747.34;6122847;23;20037;-91
2022/12/13 06:24:41;;;;;;;19.63;3.97;;;;;;;-8.01;100.00;99744.97;6126186;23;20022;-90
2022/12/13 06:27:06;;;;;;;0.93;0.93;;;;;;;-7.82;100.00;99769.63;6100846;23;20018;-91
2022/12/13 06:29:32;;;;;;;1.98;1.88;;;;;;;-7.82;100.00;99783.09;6075739;23;20570;-91
2022/12/13 06:31:59;;;;;;;1.25;0.98;;;;;;;-7.80;100.00;99775.47;6119823;23;20313;-92
2022/12/13 06:34:25;;;;;;;1.45;1.35;;;;;;;-7.93;100.00;99764.91;6100272;23;20027;-88
2022/12/13 06:36:51;;;;;;;0.65;0.65;;;;;;;-7.86;100.00;99773.28;6123957;23;20092;-91
2022/12/13 06:39:17;;;;;;;0.80;0.80;;;;;;;-7.85;100.00;99778.34;6099038;23;20098;-91
2022/12/13 06:41:42;;;;;;;1.40;1.30;;;;;;;-7.98;100.00;99747.03;6148628;23;20048;-91
2022/12/13 06:44:08;;;;;;;0.20;0.20;;;;;;;-7.72;100.00;99782.72;6099817;23;20434;-90
2022/12/13 06:46:33;;;;;;;3.50;1.45;;;;;;;-7.89;100.00;99760.47;6124915;23;20021;-87
2022/12/13 06:49:00;;;;;;;3.15;2.95;;;;;;;-7.61;100.00;99802.81;6150554;23;20013;-87
2022/12/13 06:51:26;;;;;;;2.28;1.60;;;;;;;-7.84;100.00;99763.75;6122355;23;20013;-87
2022/12/13 06:53:51;;;;;;;0.98;0.95;;;;;;;-7.55;100.00;99803.41;6123614;23;20092;-87
2022/12/13 06:56:17;;;;;;;0.52;0.52;;;;;;;-7.78;100.00;99757.09;6146431;23;20359;-87
2022/12/13 06:58:43;;;;;;;4.38;2.35;;;;;;;-7.50;100.00;99783.59;6121256;23;20496;-87
2022/12/13 07:01:11;;;;;;;0.63;0.63;;;;;;;-7.33;100.00;99799.69;6098454;23;20086;-88
2022/12/13 07:03:37;;;;;;;1.65;1.50;;;;;;;-7.52;100.00;99754.31;6100406;23;20064;-89
2022/12/13 07:06:06;;;;;;;0.73;0.73;;;;;;;-7.33;100.00;99767.38;6103965;23;20097;-91
2022/12/13 07:08:32;;;;;;;0.45;0.45;;;;;;;-7.04;100.00;99785.44;6127427;23;20356;-91
2022/12/13 07:10:58;;;;;;;1.70;1.60;;;;;;;-6.96;100.00;99773.81;6102579;23;20014;-90
2022/12/13 07:13:24;;;;;;;0.30;0.30;;;;;;;-6.73;100.00;99785.88;6103537;23;20414;-91
2022/12/13 07:15:49;;;;;;;1.00;0.88;;;;;;;-6.57;100.00;99791.47;6127433;23;20004;-91
2022/12/13 07:18:16;;;;;;;8.48;3.13;;;;;;;-6.59;100.00;99764.03;6105248;23;20052;-91
2022/12/13 07:20:43;;;;;;;0.98;0.95;;;;;;;-6.47;100.00;99773.00;6128591;23;20344;-92
2022/12/13 07:23:09;;;;;;;0.77;0.77;;;;;;;-6.54;100.00;99742.22;6104918;23;20026;-92
2022/12/13 07:25:35;;;;;;;2.00;1.88;;;;;;;-6.26;100.00;99767.53;6104456;23;20036;-91
2022/12/13 07:28:03;;;;;;;4.85;4.47;;;;;;;-5.84;100.00;99806.81;6153468;23;20029;-91
2022/12/13 07:30:36;;;;;;;1.15;1.13;;;;;;;-5.75;100.00;99799.41;6104818;23;20013;-93
2022/12/13 07:33:03;;;;;;;0.98;0.80;;;;;;;-5.96;100.00;99792.50;6106456;23;20088;-92
2022/12/13 07:35:29;;;;;;;1.15;1.10;;;;;;;-6.15;100.00;99763.31;6106510;23;20005;-92
2022/12/13 07:37:55;;;;;;;0.68;0.68;;;;;;;-6.10;100.00;99798.19;6130054;23;20031;-91
2022/12/13 07:40:21;;;;;;;1.52;1.45;;;;;;;-6.04;100.00;99804.97;6129995;23;20045;-91
2022/12/13 07:42:51;;;;;;;0.10;0.10;;;;;;;-6.23;100.00;99783.09;6105605;23;20452;-91
2022/12/13 07:45:17;;;;;;;1.17;1.17;;;;;;;-6.42;100.00;99766.56;6132044;23;20021;-92
2022/12/13 07:47:42;;;;;;;0.95;0.95;;;;;;;-6.39;100.00;99764.03;6131130;23;20010;-89
2022/12/13 07:50:08;;;;;;;0.75;0.75;;;;;;;-6.04;100.00;99802.28;6104866;23;20027;-92
2022/12/13 07:52:33;;;;;;;1.13;1.13;;;;;;;-6.23;100.00;99764.19;6107682;23;20432;-92
2022/12/13 07:54:59;;;;;;;0.73;0.73;;;;;;;-6.01;100.00;99768.41;6107247;23;20362;-92
2022/12/13 07:57:25;;;;;;;0.93;0.93;;;;;;;-5.73;100.00;99782.84;6129705;23;20396;-91
2022/12/13 07:59:50;;;;;;;2.55;1.85;;;;;;;-5.86;100.00;99740.78;6128975;23;20021;-92
2022/12/13 08:02:16;;;;;;;2.35;1.55;;;;;;;-5.51;100.00;99765.44;6106895;23;20013;-89
2022/12/13 08:04:42;;;;;;;0.20;0.20;;;;;;;-5.35;100.00;99764.44;6106821;23;20013;-90
2022/12/13 08:07:08;;;;;;;1.25;1.15;;;;;;;-5.24;100.00;99745.84;6104252;23;20014;-90
2022/12/13 08:09:34;;;;;;;3.63;2.35;;;;;;;-4.96;100.00;99764.88;6155051;23;20025;-89
2022/12/13 08:12:00;;;;;;;1.60;1.48;;;;;;;-4.93;100.00;99747.97;6131551;23;20018;-90
2022/12/13 08:14:28;;;;;;;2.30;2.20;;;;;;;-4.76;100.00;99772.03;6129927;23;20023;-90
2022/12/13 08:16:53;;;;;;;2.20;2.05;;;;;;;-4.75;100.00;99766.31;6128878;23;20080;-90
2022/12/13 08:19:19;;;;;;;1.73;1.63;;;;;;;-4.76;100.00;99762.00;6155380;23;20412;-92
2022/12/13 08:21:44;;;;;;;0.65;0.63;;;;;;;-4.80;100.00;99747.59;6153217;23;20017;-91
2022/12/13 08:24:10;;;;;;;1.80;1.60;;;;;;;-4.76;100.00;99743.06;6154493;23;20009;-91
2022/12/13 08:26:36;;;;;;;3.10;1.98;;;;;;;-4.68;100.00;99745.97;6153529;23;20049;-91
2022/12/13 08:29:02;;;;;;;0.88;0.88;;;;;;;-4.59;100.00;99742.03;6153262;23;20029;-91
2022/12/13 08:31:28;;;;;;;2.30;1.88;;;;;;;-4.31;100.00;99769.09;6128254;23;20021;-92
2022/12/13 08:33:53;;;;;;;0.93;0.93;;;;;;;-4.42;100.00;99743.66;6153333;23;20005;-92
2022/12/13 08:36:22;;;;;;;1.13;1.13;;;;;;;-4.26;100.00;99741.78;6128038;23;20017;-92
2022/12/13 08:38:49;;;;;;;0.40;0.40;;;;;;;-3.98;100.00;99750.69;6129191;23;20013;-92
2022/12/13 08:41:14;;;;;;;2.10;1.70;;;;;;;-3.93;100.00;99726.03;6128534;23;20396;-92
2022/12/13 08:43:40;;;;;;;4.85;2.22;;;;;;;-3.69;100.00;99756.84;6128961;23;20084;-92
2022/12/13 08:46:06;;;;;;;4.55;3.42;;;;;;;-3.67;100.00;99736.38;6129271;23;20519;-92
2022/12/13 08:48:32;;;;;;;3.70;2.05;;;;;;;-3.55;100.00;99751.75;6128960;23;20063;-93
2022/12/13 08:51:12;;;;;;;0.20;0.20;;;;;;;-3.41;100.00;99757.53;6153103;23;20096;-93
2022/12/13 08:53:38;;;;;;;3.65;1.33;;;;;;;-3.25;100.00;99761.03;6106068;23;20025;-91
2022/12/13 08:56:06;;;;;;;1.55;1.45;;;;;;;-3.15;100.00;99768.63;6130145;23;20013;-92
2022/12/13 08:58:31;;;;;;;0.38;0.38;;;;;;;-3.22;100.00;99743.25;6129333;23;20020;-94
2022/12/13 09:00:57;;;;;;;1.70;1.60;;;;;;;-2.99;100.00;99763.97;6152527;23;20005;-89
2022/12/13 09:03:23;;;;;;;2.15;2.05;;;;;;;-2.95;100.00;99775.69;6177603;23;20048;-92
2022/12/13 09:05:49;;;;;;;2.50;2.33;;;;;;;-2.95;100.00;99764.81;6160549;23;20012;-93
2022/12/13 09:08:15;;;;;;;0.93;0.68;;;;;;;-2.94;100.00;99744.69;6109943;23;20143;-93
2022/12/13 09:10:40;;;;;;;0.93;0.93;;;;;;;-2.94;100.00;99735.75;6160234;23;20435;-93
2022/12/13 09:13:06;;;;;;;2.90;2.45;;;;;;;-2.79;100.00;99729.53;6113620;23;20057;-94
2022/12/13 09:15:32;;;;;;;1.17;0.70;;;;;;;-2.78;100.00;99735.72;6136412;23;20001;-94
2022/12/13 09:17:57;;;;;;;3.42;1.48;;;;;;;-2.63;100.00;99735.69;6111961;23;20435;-93
2022/12/13 09:20:23;;;;;;;1.58;1.48;;;;;;;-2.59;100.00;99711.31;6114062;23;20001;-94
2022/12/13 09:22:49;;;;;;;0.20;0.20;;;;;;;-2.23;100.00;99762.50;6115585;23;20016;-92
2022/12/13 09:25:14;;;;;;;0.88;0.88;;;;;;;-2.28;100.00;99742.97;6112240;23;20012;-93
2022/12/13 09:27:41;;;;;;;2.10;1.90;;;;;;;-2.15;100.00;99737.03;6113170;23;20009;-94
2022/12/13 09:30:11;;;;;;;0.50;0.50;;;;;;;-2.09;100.00;99734.81;6142193;23;20032;-93
2022/12/13 09:32:39;;;;;;;0.68;0.68;;;;;;;-1.96;100.00;99734.28;6117297;23;20443;-94
2022/12/13 09:35:06;;;;;;;0.55;0.50;;;;;;;-2.03;100.00;99719.78;6113709;23;20083;-94
2022/12/13 09:37:31;;;;;;;0.80;0.80;;;;;;;-1.97;100.00;99716.41;6137898;23;20088;-89
2022/12/13 09:39:57;;;;;;;0.47;0.47;;;;;;;-1.80;100.00;99746.97;6138215;23;20016;-93
2022/12/13 09:42:25;;;;;;;2.08;1.98;;;;;;;-1.90;100.00;99727.41;6135350;23;20016;-94
2022/12/13 09:44:53;;;;;;;2.22;2.08;;;;;;;-1.80;100.00;99746.97;6159351;23;20017;-93
2022/12/13 09:47:28;;;;;;;0.95;0.88;;;;;;;-1.66;100.00;99749.97;6134695;23;20493;-92
2022/12/13 09:49:54;;;;;;;0.98;0.98;;;;;;;-1.72;100.00;99725.00;6134077;23;20016;-93
2022/12/13 09:52:22;;;;;;;0.47;0.47;;;;;;;-1.56;100.00;99752.06;6160112;23;20013;-94
2022/12/13 09:54:51;;;;;;;2.83;2.45;;;;;;;-1.36;100.00;99750.84;6109634;23;20017;-92
2022/12/13 09:57:19;;;;;;;1.10;1.10;;;;;;;-1.51;100.00;99700.09;6108903;23;20017;-93
2022/12/13 09:59:46;;;;;;;0.70;0.70;;;;;;;-1.35;100.00;99738.84;6133115;23;20036;-90
2022/12/13 10:02:20;;;;;;;1.75;1.48;;;;;;;-1.25;100.00;99730.03;6133064;23;20336;-93
2022/12/13 10:04:45;;;;;;;12.40;2.63;;;;;;;-1.15;100.00;99740.31;6133350;23;20021;-93
2022/12/13 10:07:17;;;;;;;1.23;1.20;;;;;;;-1.13;100.00;99716.22;6132661;23;20012;-92
2022/12/13 10:09:43;;;;;;;2.05;1.95;;;;;;;-0.99;100.00;99727.34;6157447;23;20024;-93
2022/12/13 10:12:12;;;;;;;2.55;2.35;;;;;;;-0.77;100.00;99716.75;6109838;23;20327;-92
2022/12/13 10:14:41;;;;;;;1.05;0.95;;;;;;;-0.50;100.00;99720.97;6108552;23;20012;-93
2022/12/13 10:17:08;;;;;;;2.22;1.13;;;;;;;-0.72;100.00;99725.38;6157484;23;20088;-88
2022/12/13 10:19:45;;;;;;;2.20;1.27;;;;;;;-0.61;100.00;99725.53;6157210;23;20416;-89
2022/12/13 10:22:13;;;;;;;1.77;1.67;;;;;;;-0.61;100.00;99714.63;6132569;23;20096;-89
2022/12/13 10:25:04;;;;;;;0.63;0.63;;;;;;;-0.34;100.00;99718.84;6107908;23;20079;-89
2022/12/13 10:27:40;;;;;;;1.65;1.52;;;;;;;-0.24;100.00;99720.91;6108055;23;20023;-90
2022/12/13 10:30:19;;;;;;;1.38;1.00;;;;;;;-0.24;100.00;99728.31;6131471;23;20463;-89
2022/12/13 10:32:54;;;;;;;0.52;0.52;;;;;;;-0.11;100.00;99724.16;6107955;23;20076;-89
2022/12/13 10:35:29;;;;;;;0.43;0.43;;;;;;;-0.02;100.00;99725.44;6132466;23;20044;-89
2022/12/13 10:37:58;;;;;;;0.88;0.85;;;;;;;-0.17;98.26;99706.56;6132807;23;20096;-93
2022/12/13 10:40:31;;;;;;;1.20;1.13;;;;;;;-0.17;98.72;99723.72;6134419;23;20084;-93
2022/12/13 10:43:17;;;;;;;0.77;0.77;;;;;;;0.13;100.00;99698.28;6134231;23;20055;-95
2022/12/13 10:45:56;;;;;;;0.38;0.38;;;;;;;0.15;99.07;99701.44;6134476;23;20029;-92
2022/12/13 10:48:49;;;;;;;1.38;1.27;;;;;;;0.44;100.00;99686.91;6111043;23;20067;-91
2022/12/13 10:51:19;;;;;;;0.70;0.70;;;;;;;0.65;100.00;99689.78;6127572;23;20044;-93
2022/12/13 10:53:48;;;;;;;1.00;0.98;;;;;;;0.67;100.00;99690.19;6159447;23;20076;-89
2022/12/13 10:56:17;;;;;;;0.80;0.80;;;;;;;0.92;97.47;99688.44;6185955;23;20005;-93
2022/12/13 10:58:47;;;;;;;0.75;0.65;;;;;;;0.69;96.56;99648.88;6135848;23;20041;-93
2022/12/13 11:01:20;;;;;;;1.67;1.58;;;;;;;0.77;98.82;99681.28;6113200;23;20518;-93
2022/12/13 11:03:58;;;;;;;0.38;0.38;;;;;;;0.54;99.05;99614.44;6137347;23;20094;-94
2022/12/13 11:06:26;;;;;;;0.13;0.13;;;;;;;0.99;99.40;99652.19;6137331;23;20013;-94
2022/12/13 11:08:55;;;;;;;0.15;0.15;;;;;;;0.57;96.24;99611.75;6139990;23;20040;-95
2022/12/13 11:11:29;;;;;;;1.40;0.82;;;;;;;0.39;96.89;99613.59;6120366;23;20040;-96
2022/12/13 11:14:02;;;;;;;1.95;1.63;;;;;;;0.58;97.55;99616.03;6143679;23;20020;-95
2022/12/13 11:16:38;;;;;;;6.35;2.50;;;;;;;0.71;98.93;99625.50;6148535;23;20017;-96
2022/12/13 11:19:14;;;;;;;0.55;0.55;;;;;;;0.98;97.08;99617.03;6120825;23;20017;-94
2022/12/13 11:21:46;;;;;;;0.65;0.65;;;;;;;1.05;96.80;99617.09;6121842;23;20017;-95
2022/12/13 11:24:19;;;;;;;2.13;1.58;;;;;;;0.83;94.85;99611.53;6128422;23;20037;-94
2022/12/13 11:26:48;;;;;;;0.45;0.45;;;;;;;0.84;96.18;99601.38;6127951;23;20052;-95
2022/12/13 11:29:30;;;;;;;1.17;1.08;;;;;;;0.81;96.40;99592.00;6124500;23;20023;-94
2022/12/13 11:32:14;;;;;;;2.97;2.72;;;;;;;1.36;95.76;99657.44;6150087;23;20020;-88
2022/12/13 11:34:46;;;;;;;0.85;0.85;;;;;;;1.53;95.79;99653.19;6146980;23;20021;-94
2022/12/13 11:37:19;;;;;;;0.40;0.40;;;;;;;1.17;96.24;99597.66;6142242;23;20439;-95
2022/12/13 11:39:58;;;;;;;0.63;0.55;;;;;;;1.17;94.29;99597.66;6144035;23;20013;-95
2022/12/13 11:42:44;;;;;;;0.68;0.68;;;;;;;0.87;95.17;99601.41;6125111;23;20025;-94